Time;durP1;ratioP1;P1;durP2;ratioP2;P2;SDS_P1;SDS_P2;PMS_P1;PMS_P2;Temp;Humidity;BMP_temperature;BMP_pressure;BME280_temperature;BME280_humidity;BME280_pressure;Samples;Min_cycle;Max_cycle;Signal;HPM_P1;HPM_P2
2021/06/04 00:01:31;;;;;;;7.08;4.65;;;;;;;16.15;51.66;99964.31;1687098;84;21594;-70
2021/06/04 00:03:59;;;;;;;7.25;5.05;;;;;;;16.13;51.96;99966.26;1689732;84;21088;-71
2021/06/04 00:06:26;;;;;;;9.60;4.92;;;;;;;16.11;52.04;99979.39;1685721;84;21103;-71
2021/06/04 00:08:53;;;;;;;8.95;5.28;;;;;;;16.08;52.37;99973.84;1687865;84;21595;-70
2021/06/04 00:11:24;;;;;;;9.65;5.05;;;;;;;16.05;52.44;99972.79;1686055;84;20989;-70
2021/06/04 00:14:13;;;;;;;14.30;7.55;;;;;;;16.03;52.74;99969.41;1683275;84;21009;-70
2021/06/04 00:16:48;;;;;;;22.87;11.95;;;;;;;16.01;52.80;99978.89;1685347;84;21056;-70
2021/06/04 00:19:20;;;;;;;21.95;15.58;;;;;;;15.98;52.83;99978.31;1686414;84;21077;-70
2021/06/04 00:21:53;;;;;;;23.12;14.47;;;;;;;15.96;53.08;99970.92;1648867;86;21471;-71
2021/06/04 00:24:22;;;;;;;23.22;15.80;;;;;;;15.91;53.44;99969.16;1604602;87;22181;-70
2021/06/04 00:26:49;;;;;;;22.45;15.28;;;;;;;15.87;53.57;99968.11;1686836;84;21100;-70
2021/06/04 00:29:16;;;;;;;18.12;13.65;;;;;;;15.84;53.74;99966.20;1685038;84;21555;-71
2021/06/04 00:31:43;;;;;;;19.10;13.85;;;;;;;15.84;53.96;99970.20;1693690;84;20996;-71
2021/06/04 00:34:11;;;;;;;17.02;11.83;;;;;;;15.81;54.24;99971.80;1620010;86;21690;-70
2021/06/04 00:36:42;;;;;;;16.27;11.50;;;;;;;15.78;54.50;99975.58;1667574;86;21112;-71
2021/06/04 00:39:13;;;;;;;14.15;10.68;;;;;;;15.76;54.75;99968.70;1618876;87;21032;-71
2021/06/04 00:41:48;;;;;;;15.90;9.98;;;;;;;15.72;54.96;99973.45;1629996;87;21571;-71
2021/06/04 00:44:17;;;;;;;15.85;9.50;;;;;;;15.70;55.23;99967.39;1629642;87;21038;-71
2021/06/04 00:46:44;;;;;;;12.65;8.35;;;;;;;15.65;55.58;99974.48;1628472;88;21093;-70
2021/06/04 00:49:13;;;;;;;16.57;8.28;;;;;;;15.59;56.08;99976.83;1618776;87;21037;-70
2021/06/04 00:51:51;;;;;;;15.60;8.13;;;;;;;15.52;56.47;99976.53;1625601;88;21079;-70
2021/06/04 00:54:21;;;;;;;14.98;9.20;;;;;;;15.49;56.69;99977.64;1629704;88;21062;-70
2021/06/04 00:56:49;;;;;;;13.30;9.88;;;;;;;15.47;56.95;99974.76;1615558;88;21858;-70
2021/06/04 00:59:25;;;;;;;18.23;12.37;;;;;;;15.46;57.13;99970.40;1629301;88;21065;-70
2021/06/04 01:01:48;;;;;;;18.23;13.22;;;;;;;15.46;57.29;99975.73;1628325;88;21409;-70
2021/06/04 01:04:17;;;;;;;17.48;13.43;;;;;;;15.59;57.15;99976.83;1629102;88;21073;-71
2021/06/04 01:07:09;;;;;;;21.27;14.95;;;;;;;15.63;57.13;99965.77;1629826;87;22366;-70
2021/06/04 01:10:05;;;;;;;19.60;14.38;;;;;;;15.61;57.10;99969.55;1629595;88;21604;-70
2021/06/04 01:13:03;;;;;;;16.40;11.80;;;;;;;15.54;57.23;99968.75;1629895;87;21596;-70
2021/06/04 01:15:49;;;;;;;16.05;10.55;;;;;;;15.49;57.41;99973.64;1629947;88;21077;-70
2021/06/04 01:18:49;;;;;;;15.65;9.73;;;;;;;15.40;57.76;99971.79;1629508;88;21105;-72
2021/06/04 01:21:41;;;;;;;16.35;9.65;;;;;;;15.34;58.04;99973.66;1586700;88;20989;-70
2021/06/04 01:24:42;;;;;;;14.40;8.33;;;;;;;15.26;58.29;99974.31;1630111;88;21033;-70
2021/06/04 01:27:32;;;;;;;16.75;8.33;;;;;;;15.22;58.41;99979.06;1615424;87;21671;-70
2021/06/04 01:30:18;;;;;;;13.45;8.03;;;;;;;15.15;58.68;99975.73;1621826;88;21145;-70
2021/06/04 01:32:44;;;;;;;;;;;;;;;15.09;58.85;99985.11;1624863;88;21068;-70
2021/06/04 01:35:15;;;;;;;14.03;8.10;;;;;;;15.06;58.89;99981.35;1622113;88;20121;-70
2021/06/04 01:37:42;;;;;;;15.05;7.58;;;;;;;15.03;58.98;99986.95;1637489;87;21073;-70
2021/06/04 01:40:20;;;;;;;17.73;8.00;;;;;;;15.04;59.08;99980.66;1642431;86;22162;-70
2021/06/04 01:42:48;;;;;;;15.00;7.20;;;;;;;15.04;59.10;99981.99;1643557;87;20990;-70
2021/06/04 01:45:36;;;;;;;15.20;7.97;;;;;;;15.10;59.04;99984.10;1617229;87;21120;-70
2021/06/04 01:48:12;;;;;;;12.47;7.37;;;;;;;15.26;58.69;99984.14;1615743;88;21012;-70
2021/06/04 01:50:49;;;;;;;13.78;7.50;;;;;;;15.26;58.71;99980.15;1618106;88;21116;-70
2021/06/04 01:53:25;;;;;;;10.98;6.67;;;;;;;15.22;58.86;99984.39;1631581;88;21002;-70
2021/06/04 01:55:56;;;;;;;14.60;7.20;;;;;;;15.20;58.91;99981.00;1622631;87;21099;-70
2021/06/04 01:58:31;;;;;;;10.03;7.03;;;;;;;15.19;58.93;99984.67;1616102;88;21091;-73
2021/06/04 02:01:03;;;;;;;13.15;7.08;;;;;;;15.17;59.02;99977.28;1595383;89;21092;-72
2021/06/04 02:03:31;;;;;;;17.42;7.03;;;;;;;15.16;59.23;99984.91;1615764;88;21152;-72
2021/06/04 02:06:02;;;;;;;12.68;6.90;;;;;;;15.14;59.25;99984.22;1595718;89;21088;-70
2021/06/04 02:08:44;;;;;;;13.00;7.15;;;;;;;15.13;59.41;99991.85;1616351;88;21597;-73
2021/06/04 02:11:14;;;;;;;12.55;7.58;;;;;;;15.10;59.51;99992.09;1598293;89;21106;-73
2021/06/04 02:13:47;;;;;;;10.58;5.97;;;;;;;15.07;59.63;99991.03;1613898;88;21052;-70
2021/06/04 02:16:19;;;;;;;;;;;;;;;15.14;59.67;99992.22;1598668;89;21081;-70
2021/06/04 02:19:24;;;;;;;9.98;6.30;;;;;;;15.28;59.50;99984.84;1593043;89;20147;-70
2021/06/04 02:22:15;;;;;;;14.80;6.67;;;;;;;15.23;59.71;99987.92;1625604;88;21112;-70
2021/06/04 02:25:21;;;;;;;12.50;7.25;;;;;;;15.15;59.99;99987.72;1597262;88;21128;-70
2021/06/04 02:28:02;;;;;;;15.10;6.40;;;;;;;14.89;60.36;99953.52;1615136;88;21097;-70
2021/06/04 02:30:41;;;;;;;12.25;6.65;;;;;;;15.05;60.75;99987.66;1617192;88;21037;-70
2021/06/04 02:33:19;;;;;;;12.25;6.72;;;;;;;15.02;60.96;99989.25;1629827;88;21085;-70
2021/06/04 02:36:00;;;;;;;11.45;7.12;;;;;;;15.02;61.19;99997.25;1650209;86;21741;-73
2021/06/04 02:38:47;;;;;;;12.07;6.87;;;;;;;14.99;61.35;99998.35;1661755;86;21047;-70
2021/06/04 02:41:30;;;;;;;12.13;6.30;;;;;;;14.98;61.53;99995.33;1641775;86;21020;-70
2021/06/04 02:44:20;;;;;;;13.83;7.17;;;;;;;15.08;61.44;99991.40;1645553;86;21057;-70
2021/06/04 02:47:07;;;;;;;10.25;6.08;;;;;;;15.22;61.20;99988.39;1638719;87;21615;-70
2021/06/04 02:49:35;;;;;;;9.90;6.35;;;;;;;15.21;61.34;99985.86;1648062;86;21623;-71
2021/06/04 02:52:29;;;;;;;9.60;6.40;;;;;;;15.16;61.54;99992.91;1657202;86;21556;-71
2021/06/04 02:54:58;;;;;;;10.28;6.20;;;;;;;15.15;61.80;99992.55;1648887;86;21032;-71
2021/06/04 02:57:27;;;;;;;12.35;6.83;;;;;;;15.15;61.96;99992.55;1643197;86;21077;-71
2021/06/04 02:59:54;;;;;;;11.97;6.58;;;;;;;15.17;62.13;99994.60;1678985;84;21013;-71
2021/06/04 03:02:27;;;;;;;14.38;6.78;;;;;;;15.20;62.31;99991.66;1672101;84;21515;-71
2021/06/04 03:04:59;;;;;;;9.58;5.90;;;;;;;15.22;62.52;99991.55;1693674;84;21048;-71
2021/06/04 03:07:31;;;;;;;11.65;5.92;;;;;;;15.32;62.56;100000.91;1689018;84;21017;-71
2021/06/04 03:10:03;;;;;;;12.73;6.65;;;;;;;15.48;62.32;99994.61;1626209;87;21544;-71
2021/06/04 03:12:35;;;;;;;13.88;6.42;;;;;;;15.51;62.25;99997.02;1618789;89;21563;-71
2021/06/04 03:15:10;;;;;;;10.63;6.30;;;;;;;15.51;62.20;99999.69;1617004;86;21088;-71
2021/06/04 03:17:37;;;;;;;13.43;7.00;;;;;;;15.49;62.19;99993.63;1584274;89;21027;-71
2021/06/04 03:20:08;;;;;;;10.58;6.20;;;;;;;15.51;62.23;99998.82;1671527;86;21099;-71
2021/06/04 03:22:39;;;;;;;11.93;6.65;;;;;;;15.54;62.38;99994.58;1640535;87;21108;-71
2021/06/04 03:25:17;;;;;;;12.70;6.50;;;;;;;15.55;62.48;99998.44;1678260;84;21323;-72
2021/06/04 03:27:46;;;;;;;13.43;6.45;;;;;;;15.56;62.58;99992.60;1672725;84;21020;-72
2021/06/04 03:30:17;;;;;;;12.45;6.40;;;;;;;15.66;62.21;99993.98;1674235;84;21084;-72
2021/06/04 03:32:43;;;;;;;9.48;6.25;;;;;;;15.84;61.67;99995.07;1638084;86;21527;-72
2021/06/04 03:35:12;;;;;;;11.97;6.65;;;;;;;15.88;61.53;99992.48;1640109;86;21596;-72
2021/06/04 03:37:38;;;;;;;10.80;6.17;;;;;;;15.87;61.61;99993.45;1634325;87;21041;-72
2021/06/04 03:40:09;;;;;;;10.60;5.72;;;;;;;15.83;61.65;99997.38;1651721;87;21006;-72
2021/06/04 03:42:36;;;;;;;12.00;7.12;;;;;;;15.83;61.72;100002.70;1651800;87;21033;-72
2021/06/04 03:47:18;;;;;;;10.93;5.60;;;;;;;16.00;61.33;99996.37;1856908;77;22249;-72
2021/06/04 03:49:45;;;;;;;8.93;6.40;;;;;;;15.99;61.18;99997.34;1804584;78;21563;-72
2021/06/04 03:52:17;;;;;;;8.80;6.35;;;;;;;16.01;61.11;99987.36;1822746;78;21480;-72
2021/06/04 03:54:45;;;;;;;10.25;7.10;;;;;;;16.03;61.11;99988.91;1791911;78;21617;-72
2021/06/04 03:57:15;;;;;;;10.65;6.10;;;;;;;16.08;61.08;99990.34;1790352;80;21003;-72
2021/06/04 03:59:44;;;;;;;8.15;6.10;;;;;;;16.11;60.93;99992.22;1790304;80;21059;-72
2021/06/04 04:02:14;;;;;;;9.15;6.25;;;;;;;16.18;60.92;99993.87;1799959;78;21052;-73
2021/06/04 04:04:41;;;;;;;10.48;6.20;;;;;;;16.43;60.46;100000.47;1829374;78;20954;-72
2021/06/04 04:07:08;;;;;;;13.75;7.33;;;;;;;16.71;59.63;99992.61;1819640;78;21518;-72
2021/06/04 04:09:35;;;;;;;9.20;6.55;;;;;;;16.92;58.98;99991.63;1826214;78;21043;-72
2021/06/04 04:12:02;;;;;;;11.80;6.75;;;;;;;17.01;58.53;99988.95;1806084;78;21586;-73
2021/06/04 04:14:30;;;;;;;19.50;7.17;;;;;;;17.03;58.33;99992.80;1824645;78;21020;-73
2021/06/04 04:16:57;;;;;;;11.25;6.65;;;;;;;17.26;58.27;99983.95;1816340;78;21594;-72
2021/06/04 04:19:24;;;;;;;9.98;6.60;;;;;;;17.58;57.35;99987.22;1828854;78;20984;-73
2021/06/04 04:21:53;;;;;;;9.83;6.80;;;;;;;17.69;56.90;99992.38;1829080;78;21005;-73
2021/06/04 04:24:24;;;;;;;11.10;6.58;;;;;;;17.71;56.65;99993.08;1829550;78;21003;-72
2021/06/04 04:26:50;;;;;;;12.65;7.08;;;;;;;17.73;56.77;99995.60;1828155;78;21012;-73
2021/06/04 04:29:17;;;;;;;14.63;8.70;;;;;;;17.93;56.10;99996.31;1811715;78;20958;-73
2021/06/04 04:31:48;;;;;;;19.52;9.23;;;;;;;17.92;56.08;99994.66;1829246;78;21060;-73
2021/06/04 04:34:14;;;;;;;18.23;9.20;;;;;;;18.21;55.80;99994.50;1818422;78;21008;-73
2021/06/04 04:36:47;;;;;;;22.48;9.88;;;;;;;18.73;54.93;99991.11;1779774;80;22382;-73
2021/06/04 04:39:20;;;;;;;22.00;9.68;;;;;;;19.01;54.03;99987.51;1786691;80;21372;-73
2021/06/04 04:41:47;;;;;;;20.17;10.03;;;;;;;19.32;53.19;99998.58;1785233;80;21535;-73
2021/06/04 04:44:18;;;;;;;14.47;8.60;;;;;;;19.49;52.72;99992.31;1777102;80;21047;-73
2021/06/04 04:46:45;;;;;;;20.32;9.63;;;;;;;19.64;52.12;99989.02;1760509;80;21382;-72
2021/06/04 04:49:12;;;;;;;23.02;12.30;;;;;;;19.68;51.84;99996.25;1770448;81;20992;-72
2021/06/04 04:51:39;;;;;;;20.90;9.95;;;;;;;19.73;51.84;99990.75;1774037;80;20996;-74
2021/06/04 04:54:08;;;;;;;17.40;9.30;;;;;;;19.95;51.78;99993.87;1754702;81;21051;-73
2021/06/04 04:56:35;;;;;;;14.78;8.00;;;;;;;20.20;51.02;99992.08;1763125;80;21512;-72
2021/06/04 04:59:04;;;;;;;10.93;6.70;;;;;;;20.32;50.89;99995.30;1754254;81;21055;-72
2021/06/04 05:01:30;;;;;;;13.28;6.80;;;;;;;20.38;50.11;99995.13;1774526;81;20972;-72
2021/06/04 05:03:56;;;;;;;13.10;6.50;;;;;;;20.42;50.05;100000.50;1768735;80;21697;-72
2021/06/04 05:06:23;;;;;;;6.60;5.58;;;;;;;20.48;49.68;100007.08;1759190;81;21578;-72
2021/06/04 05:08:51;;;;;;;9.83;5.45;;;;;;;20.64;49.59;99996.34;1760167;80;21007;-72
2021/06/04 05:11:18;;;;;;;11.18;5.72;;;;;;;21.04;47.67;99996.00;1752168;81;21562;-73
2021/06/04 05:13:45;;;;;;;9.25;5.62;;;;;;;21.24;47.07;99999.66;1767489;81;21477;-74
2021/06/04 05:16:11;;;;;;;8.65;5.42;;;;;;;21.30;46.65;99998.97;1771062;81;21071;-73
2021/06/04 05:18:38;;;;;;;11.73;5.55;;;;;;;21.34;46.66;99994.92;1747978;82;21047;-73
2021/06/04 05:21:10;;;;;;;11.93;5.83;;;;;;;21.55;47.20;99994.91;1749741;81;21004;-72
2021/06/04 05:23:37;;;;;;;9.18;4.85;;;;;;;21.72;46.28;99994.34;1764848;80;21023;-73
2021/06/04 05:26:03;;;;;;;9.60;5.05;;;;;;;21.76;45.83;99997.86;1756032;81;21072;-73
2021/06/04 05:28:30;;;;;;;9.73;5.65;;;;;;;21.75;45.50;99996.17;1760329;80;20996;-73
2021/06/04 05:31:01;;;;;;;7.33;5.20;;;;;;;21.79;45.56;99998.50;1748001;82;21071;-74
2021/06/04 05:33:34;;;;;;;7.17;5.28;;;;;;;21.90;45.40;100000.81;1754106;81;20972;-74
2021/06/04 05:36:05;;;;;;;12.70;5.10;;;;;;;21.92;45.08;99999.63;1773368;80;21019;-74
2021/06/04 05:38:31;;;;;;;5.85;4.60;;;;;;;21.83;44.84;99999.83;1750201;81;20998;-74
2021/06/04 05:40:58;;;;;;;6.08;4.72;;;;;;;21.75;44.66;99990.80;1748106;82;21098;-74
2021/06/04 05:43:29;;;;;;;10.13;4.80;;;;;;;21.76;44.27;99997.86;1748470;82;21499;-74
2021/06/04 05:45:55;;;;;;;7.30;4.50;;;;;;;21.85;44.04;100001.84;1748199;82;21431;-74
2021/06/04 05:48:23;;;;;;;7.62;4.50;;;;;;;21.92;43.42;100000.97;1753295;81;21003;-74
2021/06/04 05:50:53;;;;;;;5.55;4.22;;;;;;;21.99;42.25;100007.83;1752661;81;20996;-74
2021/06/04 05:53:23;;;;;;;9.05;4.45;;;;;;;21.96;42.24;100006.84;1767705;81;20949;-74
2021/06/04 05:55:49;;;;;;;7.10;3.70;;;;;;;21.98;41.59;100007.48;1748454;82;20980;-74
2021/06/04 05:58:18;;;;;;;6.78;4.05;;;;;;;21.98;41.01;100009.36;1748845;81;21106;-74
2021/06/04 06:00:48;;;;;;;8.73;4.12;;;;;;;22.00;40.79;100010.03;1761845;81;21019;-74
2021/06/04 06:03:19;;;;;;;9.50;4.15;;;;;;;21.97;40.57;100000.45;1748229;82;21032;-74
2021/06/04 06:05:45;;;;;;;7.05;3.70;;;;;;;22.04;41.06;100003.27;1750380;81;21575;-74
2021/06/04 06:08:11;;;;;;;6.67;3.90;;;;;;;22.13;40.25;100002.72;1754408;81;20957;-75
2021/06/04 06:10:38;;;;;;;10.23;4.05;;;;;;;22.20;39.55;100005.87;1778784;81;21059;-74
2021/06/04 06:13:04;;;;;;;8.20;4.05;;;;;;;22.22;38.97;100000.30;1779075;81;21012;-75
2021/06/04 06:15:32;;;;;;;5.50;3.90;;;;;;;22.17;39.33;100008.08;1773333;80;21024;-75
2021/06/04 06:17:58;;;;;;;8.55;4.33;;;;;;;22.08;38.65;100009.48;1753300;81;21020;-77
2021/06/04 06:20:29;;;;;;;8.28;4.70;;;;;;;21.91;39.39;100006.53;1752929;81;21495;-75
2021/06/04 06:22:56;;;;;;;6.20;3.98;;;;;;;21.81;38.78;100004.56;1761193;81;20988;-75
2021/06/04 06:25:28;;;;;;;9.33;3.92;;;;;;;21.68;38.95;99999.23;1753057;81;21745;-75
2021/06/04 06:27:57;;;;;;;6.87;4.40;;;;;;;21.53;39.26;100004.45;1761969;79;20992;-74
2021/06/04 06:30:25;;;;;;;8.73;4.45;;;;;;;21.48;39.98;100002.78;1767429;81;21491;-74
2021/06/04 06:32:51;;;;;;;5.80;4.08;;;;;;;21.57;39.94;99996.91;1760683;79;21043;-74
2021/06/04 06:35:21;;;;;;;5.20;4.03;;;;;;;21.74;40.07;99999.02;1772366;79;21024;-74
2021/06/04 06:37:48;;;;;;;8.25;4.37;;;;;;;21.95;39.92;99996.26;1764942;80;20985;-73
2021/06/04 06:40:14;;;;;;;8.40;4.10;;;;;;;22.15;38.72;99989.89;1774339;79;21009;-74
2021/06/04 06:42:40;;;;;;;8.78;3.50;;;;;;;22.26;39.19;99992.19;1757209;81;21012;-73
2021/06/04 06:45:09;;;;;;;7.78;3.70;;;;;;;22.45;36.97;99992.78;1762757;79;20972;-73
2021/06/04 06:47:38;;;;;;;7.97;4.00;;;;;;;22.48;36.74;99998.66;1774794;80;20993;-73
2021/06/04 06:50:09;;;;;;;10.13;4.05;;;;;;;22.40;36.44;99995.51;1782467;79;21468;-72
2021/06/04 06:52:36;;;;;;;21.68;14.38;;;;;;;22.32;36.59;99999.55;1774257;80;21480;-72
2021/06/04 06:55:04;;;;;;;46.70;31.25;;;;;;;22.27;36.65;100003.30;1768238;80;20980;-73
2021/06/04 06:57:30;;;;;;;8.25;3.98;;;;;;;22.23;36.99;100010.06;1782998;79;20929;-73
2021/06/04 06:59:58;;;;;;;12.10;4.10;;;;;;;22.23;37.23;99994.73;1781122;80;20955;-73
2021/06/04 07:02:25;;;;;;;6.42;3.80;;;;;;;22.25;37.45;99998.59;1782203;79;20976;-73
2021/06/04 07:04:52;;;;;;;14.50;3.98;;;;;;;22.32;37.45;99996.86;1760944;80;21075;-73
2021/06/04 07:07:20;;;;;;;8.65;3.80;;;;;;;22.50;37.25;99995.77;1776729;79;21072;-73
2021/06/04 07:09:48;;;;;;;9.08;4.08;;;;;;;22.62;36.52;99999.70;1769801;80;21039;-74
2021/06/04 07:12:14;;;;;;;9.55;3.90;;;;;;;22.60;37.13;100001.75;1771452;79;20985;-73
2021/06/04 07:14:42;;;;;;;6.90;3.98;;;;;;;22.66;36.83;99994.79;1779911;79;21523;-74
2021/06/04 07:17:08;;;;;;;8.68;3.72;;;;;;;22.64;36.33;99996.33;1769324;80;21004;-73
2021/06/04 07:19:35;;;;;;;5.97;3.47;;;;;;;22.57;35.13;99995.36;1778484;79;21036;-72
2021/06/04 07:22:04;;;;;;;7.65;3.17;;;;;;;22.60;34.79;99999.06;1763098;80;21090;-72
2021/06/04 07:24:30;;;;;;;5.60;3.05;;;;;;;22.57;34.29;99989.97;1776389;79;20976;-73
2021/06/04 07:26:58;;;;;;;5.97;3.52;;;;;;;22.52;34.95;99988.33;1784033;80;21004;-73
2021/06/04 07:29:26;;;;;;;7.55;3.67;;;;;;;22.54;35.84;99988.99;1757143;79;21499;-74
2021/06/04 07:31:53;;;;;;;5.78;3.12;;;;;;;22.52;35.46;99989.19;1767877;79;21024;-74
2021/06/04 07:34:19;;;;;;;8.85;3.40;;;;;;;22.49;34.16;99994.91;1760942;80;22149;-73
2021/06/04 07:36:53;;;;;;;6.25;3.33;;;;;;;22.47;34.31;99983.98;1774565;79;21004;-73
2021/06/04 07:39:26;;;;;;;10.20;3.30;;;;;;;22.52;35.22;99981.59;1776978;80;22019;-73
2021/06/04 07:41:53;;;;;;;5.45;2.77;;;;;;;22.63;35.36;99983.03;1789899;79;21047;-73
2021/06/04 07:44:19;;;;;;;7.70;3.47;;;;;;;22.78;34.54;99968.26;1777065;79;20983;-74
2021/06/04 07:46:47;;;;;;;9.88;3.35;;;;;;;22.72;35.46;99946.89;1762244;79;21012;-73
2021/06/04 07:49:14;;;;;;;34.43;22.40;;;;;;;23.10;35.12;99981.09;1731346;82;21048;-72
2021/06/04 07:51:47;;;;;;;14.85;10.48;;;;;;;23.06;33.01;99973.36;1764816;79;21483;-72
2021/06/04 07:54:14;;;;;;;9.13;3.02;;;;;;;22.92;33.57;99979.58;1773050;79;21001;-72
2021/06/04 07:56:42;;;;;;;9.03;3.20;;;;;;;22.83;33.80;99973.94;1782720;80;21096;-72
2021/06/04 07:59:09;;;;;;;12.33;3.40;;;;;;;22.72;33.99;99976.55;1732450;82;21559;-72
2021/06/04 08:01:36;;;;;;;8.30;2.80;;;;;;;22.65;33.99;99961.62;1702182;84;21409;-72
2021/06/04 08:04:02;;;;;;;13.48;3.30;;;;;;;22.52;32.65;99979.75;1719236;82;21016;-71
2021/06/04 08:06:29;;;;;;;9.38;3.15;;;;;;;22.25;33.02;99972.99;1713443;82;21056;-71
2021/06/04 08:08:56;;;;;;;10.10;3.33;;;;;;;22.01;33.63;99973.50;1696072;82;21030;-71
2021/06/04 08:11:33;;;;;;;6.00;2.90;;;;;;;21.96;34.37;99979.06;1709800;82;21441;-72
2021/06/04 08:14:04;;;;;;;8.83;2.65;;;;;;;21.93;33.69;99974.88;1708842;82;21013;-73
2021/06/04 08:16:30;;;;;;;129.32;89.42;;;;;;;21.75;33.21;99971.95;1769715;79;20980;-71
2021/06/04 08:18:56;;;;;;;49.98;30.02;;;;;;;21.67;34.17;99965.77;1766263;80;20996;-71
2021/06/04 08:21:27;;;;;;;4.85;2.62;;;;;;;21.74;33.77;99970.27;1775082;79;20988;-70
2021/06/04 08:23:54;;;;;;;8.88;2.87;;;;;;;21.85;33.20;99966.33;1756380;81;21024;-70
2021/06/04 08:26:24;;;;;;;10.32;3.00;;;;;;;21.91;33.48;99965.63;1764288;79;20981;-71
2021/06/04 08:28:50;;;;;;;12.60;3.83;;;;;;;21.91;33.38;99966.15;1750876;81;21004;-72
2021/06/04 08:31:18;;;;;;;6.62;2.98;;;;;;;21.85;33.69;99967.67;1756674;81;21054;-72
2021/06/04 08:33:44;;;;;;;6.35;3.20;;;;;;;21.67;33.50;99970.63;1765215;79;21075;-71
2021/06/04 08:36:19;;;;;;;7.67;2.98;;;;;;;21.60;33.94;99975.05;1750798;81;21645;-71
2021/06/04 08:38:46;;;;;;;7.53;2.98;;;;;;;21.69;33.89;99964.58;1776876;79;20997;-70
2021/06/04 08:41:41;;;;;;;5.28;2.83;;;;;;;21.86;33.88;99965.84;1778062;80;20992;-71
2021/06/04 08:44:35;;;;;;;7.25;2.75;;;;;;;21.96;33.72;99965.11;1762799;79;21520;-73
2021/06/04 08:47:13;;;;;;;7.15;2.60;;;;;;;21.99;33.22;99975.52;1771188;80;21019;-72
2021/06/04 08:50:19;;;;;;;4.72;2.60;;;;;;;21.99;33.55;99975.52;1773150;79;21102;-71
2021/06/04 08:52:59;;;;;;;7.70;3.10;;;;;;;22.04;33.28;99967.74;1768950;80;21273;-72
2021/06/04 08:55:51;;;;;;;5.97;3.15;;;;;;;22.18;33.93;99970.70;1773680;79;21547;-72
2021/06/04 08:58:58;;;;;;;5.62;2.60;;;;;;;22.28;33.97;99969.96;1761804;80;21556;-72
2021/06/04 09:01:51;;;;;;;8.83;2.90;;;;;;;22.29;33.39;99953.27;1769252;79;20953;-72
2021/06/04 09:04:47;;;;;;;5.80;2.90;;;;;;;22.24;32.58;99968.64;1772131;80;20977;-72
2021/06/04 09:07:29;;;;;;;9.48;3.02;;;;;;;22.30;32.96;99965.73;1780997;79;21550;-73
2021/06/04 09:10:19;;;;;;;9.40;2.90;;;;;;;22.37;32.92;99965.39;1762236;80;21020;-72
2021/06/04 09:13:05;;;;;;;7.37;2.70;;;;;;;22.30;33.50;99965.21;1793692;79;20992;-72
2021/06/04 09:15:34;;;;;;;12.05;3.10;;;;;;;22.35;33.25;99959.30;1746906;80;20972;-73
2021/06/04 09:18:16;;;;;;;6.90;2.72;;;;;;;22.35;34.33;99964.16;1769304;79;22215;-72
2021/06/04 09:20:55;;;;;;;7.62;2.72;;;;;;;22.41;32.94;99961.31;1775974;80;21031;-72
2021/06/04 09:23:39;;;;;;;5.90;3.00;;;;;;;22.38;33.41;99946.34;1791949;79;22023;-72
2021/06/04 09:26:10;;;;;;;7.62;2.83;;;;;;;22.49;33.31;99956.36;1799384;79;21563;-72
2021/06/04 09:28:49;;;;;;;8.20;2.98;;;;;;;22.60;32.61;99945.16;1781432;79;21001;-73
2021/06/04 09:31:36;;;;;;;7.35;2.80;;;;;;;22.61;32.80;99968.40;1711545;83;21000;-71
2021/06/04 09:34:31;;;;;;;8.13;2.80;;;;;;;22.55;32.42;99962.37;1707948;83;21120;-72
2021/06/04 09:37:05;;;;;;;4.28;2.92;;;;;;;22.44;32.27;99949.33;1721419;83;22051;-72
2021/06/04 09:39:54;;;;;;;4.92;3.10;;;;;;;22.36;31.86;99944.33;1790681;79;21547;-71
2021/06/04 09:42:27;;;;;;;6.12;2.80;;;;;;;22.33;32.42;99946.50;1766407;80;21094;-71
2021/06/04 09:45:13;;;;;;;7.80;2.87;;;;;;;22.43;32.62;99944.47;1770174;79;20992;-71
2021/06/04 09:47:44;;;;;;;7.40;3.00;;;;;;;22.40;32.64;99939.42;1760977;80;21071;-71
2021/06/04 09:50:19;;;;;;;5.37;2.92;;;;;;;22.33;32.06;99943.31;1768601;79;20985;-71
2021/06/04 09:52:47;;;;;;;4.35;2.80;;;;;;;22.18;32.21;99943.25;1757920;79;21001;-71
2021/06/04 09:55:25;;;;;;;5.65;2.75;;;;;;;22.20;31.80;99935.84;1681139;84;21068;-71
2021/06/04 09:58:16;;;;;;;6.12;3.00;;;;;;;22.35;33.13;99941.27;1710510;82;20999;-73
2021/06/04 10:00:51;;;;;;;5.42;2.87;;;;;;;22.51;31.65;99940.34;1712900;82;21104;-71
2021/06/04 10:03:26;;;;;;;5.42;2.60;;;;;;;22.50;31.40;99938.66;1738572;81;20989;-71
2021/06/04 10:06:07;;;;;;;4.70;2.72;;;;;;;22.50;32.09;99939.18;1711237;82;21034;-71
2021/06/04 10:09:00;;;;;;;7.40;2.92;;;;;;;22.44;32.25;99926.42;1712246;81;21045;-71
2021/06/04 10:11:34;;;;;;;5.87;2.67;;;;;;;22.27;33.27;99939.98;1720751;83;21041;-72
2021/06/04 10:14:21;;;;;;;7.10;2.77;;;;;;;22.12;32.82;99933.70;1770098;79;21364;-72
2021/06/04 10:19:45;;;;;;;9.55;3.02;;;;;;;22.13;33.94;99928.66;1762370;79;21032;-71
2021/06/04 10:22:17;;;;;;;15.03;3.10;;;;;;;22.26;33.69;99924.84;1766252;81;21594;-72
2021/06/04 10:24:52;;;;;;;6.67;2.60;;;;;;;22.37;33.44;99930.36;1787015;79;21028;-72
2021/06/04 10:27:32;;;;;;;4.58;2.62;;;;;;;22.31;32.72;99938.61;1778225;79;21504;-72
2021/06/04 10:30:27;;;;;;;5.62;2.77;;;;;;;22.05;32.79;99933.07;1767787;79;21472;-71
2021/06/04 10:33:08;;;;;;;8.18;3.00;;;;;;;21.89;32.77;99931.82;1770379;80;21096;-71
2021/06/04 10:35:47;;;;;;;5.00;2.50;;;;;;;21.91;32.94;99928.46;1784622;79;21075;-71
2021/06/04 10:38:19;;;;;;;5.90;3.00;;;;;;;22.09;33.39;99933.55;1680996;84;21077;-70
2021/06/04 10:41:10;;;;;;;7.87;2.80;;;;;;;22.27;32.68;99930.56;1693884;84;21072;-70
2021/06/04 10:43:58;;;;;;;5.65;2.50;;;;;;;22.28;32.85;99929.55;1709845;83;21100;-72
2021/06/04 10:46:39;;;;;;;8.80;2.83;;;;;;;22.26;33.20;99923.49;1702923;81;21077;-71
2021/06/04 10:49:52;;;;;;;6.37;2.75;;;;;;;22.35;32.47;99926.45;1716700;82;21084;-70
2021/06/04 10:53:06;;;;;;;4.47;2.50;;;;;;;22.47;32.20;99939.52;1788614;79;20965;-70
2021/06/04 10:56:10;;;;;;;8.53;2.62;;;;;;;22.41;31.41;99934.36;1782426;80;21005;-71
2021/06/04 10:58:47;;;;;;;7.47;2.60;;;;;;;22.34;31.76;99923.45;1767058;79;20988;-72
2021/06/04 11:01:18;;;;;;;7.65;2.50;;;;;;;22.41;32.19;99926.28;1771369;80;21397;-72
2021/06/04 11:04:06;;;;;;;9.00;2.87;;;;;;;22.48;33.03;99929.08;1739603;80;21025;-71
2021/06/04 11:06:38;;;;;;;6.33;3.22;;;;;;;22.56;32.25;99927.68;1747282;82;21512;-71
2021/06/04 11:09:18;;;;;;;6.60;2.90;;;;;;;22.63;31.73;99921.87;1786511;79;21245;-71
2021/06/04 11:12:02;;;;;;;7.00;2.90;;;;;;;22.61;31.52;99919.88;1712833;82;21060;-71
2021/06/04 11:15:09;;;;;;;6.92;2.72;;;;;;;22.64;31.86;99918.68;1779300;80;20965;-72
2021/06/04 11:17:49;;;;;;;6.83;3.70;;;;;;;22.70;31.73;99920.13;1758821;79;21024;-72
2021/06/04 11:20:22;;;;;;;5.83;2.58;;;;;;;22.68;31.89;99927.55;1749056;80;21043;-72
2021/06/04 11:23:05;;;;;;;7.47;3.10;;;;;;;22.65;31.79;99917.63;1818609;79;21064;-70
2021/06/04 11:25:45;;;;;;;8.33;2.72;;;;;;;22.49;32.16;99917.29;1699607;83;21048;-71
2021/06/04 11:28:52;;;;;;;6.97;2.90;;;;;;;22.29;31.77;99909.68;1727472;81;21021;-70
2021/06/04 11:31:55;;;;;;;4.53;2.50;;;;;;;22.19;31.74;99923.91;1779211;79;21012;-72
2021/06/04 11:34:48;;;;;;;8.13;2.62;;;;;;;22.02;32.31;99929.40;1787540;79;21084;-71
2021/06/04 11:37:25;;;;;;;6.47;2.65;;;;;;;22.00;32.66;99922.00;1771224;79;21055;-72
2021/06/04 11:40:08;;;;;;;6.72;2.92;;;;;;;22.10;31.82;99921.25;1763900;79;21534;-72
2021/06/04 11:42:55;;;;;;;7.62;2.70;;;;;;;22.22;31.60;99920.84;1747057;80;21019;-72
2021/06/04 11:45:25;;;;;;;7.40;2.85;;;;;;;22.34;31.91;99915.36;1814152;79;21535;-72
2021/06/04 11:47:52;;;;;;;6.40;2.65;;;;;;;22.48;31.70;99915.61;1693810;82;21020;-71
2021/06/04 11:50:33;;;;;;;5.25;2.70;;;;;;;22.61;31.89;99912.29;1795164;79;20988;-71
2021/06/04 11:53:28;;;;;;;7.78;2.67;;;;;;;22.70;31.61;99915.27;1728080;82;21098;-72
2021/06/04 11:55:54;;;;;;;5.65;2.60;;;;;;;22.76;30.32;99911.80;1732966;81;21591;-73
2021/06/04 11:58:36;;;;;;;4.92;2.55;;;;;;;22.69;31.49;99909.02;1736435;81;21491;-72
2021/06/04 12:01:26;;;;;;;6.55;2.65;;;;;;;22.69;31.10;99914.92;1805961;79;21522;-72
2021/06/04 12:04:06;;;;;;;6.15;2.90;;;;;;;22.52;30.82;99910.17;1768630;79;21087;-72
2021/06/04 12:06:46;;;;;;;7.53;2.50;;;;;;;22.38;31.86;99905.92;1777896;79;20952;-72
2021/06/04 12:09:36;;;;;;;4.45;2.60;;;;;;;22.30;31.58;99911.85;1765913;80;20992;-73